Latest Coastal Weather Observations for Montague Island

IDN60701

Issued at 6:21 pm EST Tuesday 28 July 2015 (issued every 10 minutes, with the page automatically refreshed every 10 minutes)

About coastal observations | Map of coastal stations | Coastal observations for NSW | Marine services | Other Formats
Station Details ID: 069017 Name: MONTAGUE ISLAND LIGHTHOUSE Lat: -36.25 Lon: 150.23 Height: 52.0 m
Data from the previous 72 hours. | See also: Recent months at Montague Island
Date/Time
EST
Temp

°C
Wind Pressure Rain
since 9am
mm
Weather Cloud Vis
km
Sea
Height
m
Swell
Dir
 
Speed
knots
Gust
knots
hPa Trend Height
m
Period
s
Dir
28/06:00pm 13.8 SSW 18 24 1031.1 - 0.0 - - - - - - -
28/05:30pm 13.8 SSW 16 22 1030.6 - 0.0 - - - - - - -
28/05:00pm 14.1 S 16 19 1030.4 - 0.0 - - - - - - -
28/04:30pm 14.1 SSE 16 21 1030.2 - 0.0 - - - - - - -
28/04:00pm 14.2 SSE 12 14 1030.0 - 0.0 - - - - - - -
28/03:30pm 14.3 SSE 12 15 1030.1 - 0.0 - - - - - - -
28/03:00pm 14.3 SSE 11 14 1030.0 - 0.0 - - - - - - -
28/02:30pm 13.9 SSE 11 13 1029.9 - 0.0 - - - - - - -
28/02:00pm 14.2 SSE 10 12 1029.9 - 0.0 - - - - - - -
28/01:30pm 14.4 SSE 11 13 1029.8 - 0.0 - - - - - - -
28/01:00pm 14.5 SSE 10 14 1030.1 - 0.0 - - - - - - -
28/12:30pm 15.7 SW 15 19 1030.4 - 0.0 - - - - - - -
28/12:00pm 15.6 SW 17 20 1030.8 - 0.0 - - - - - - -
28/11:30am 15.7 SW 12 15 1031.1 - 0.0 - - - - - - -
28/11:00am 15.3 SW 11 13 1031.4 - 0.0 - - - - - - -
28/10:30am 14.9 SW 11 14 1031.7 - 0.0 - - - - - - -
28/10:00am 14.2 SW 15 18 1031.3 - 0.0 - - - - - - -
28/09:30am 13.8 W 7 12 1031.5 - 0.0 - - - - - - -
28/09:00am 12.8 W 9 11 1031.3 - 0.0 - - - - - - -
28/08:30am 12.6 W 10 13 1030.9 - 0.0 - - - - - - -
28/08:00am 11.7 WNW 7 9 1030.6 - 0.0 - - - - - - -
28/07:30am 11.2 WSW 8 11 1030.4 - 0.0 - - - - - - -
28/07:00am 10.8 WSW 8 11 1029.7 - 0.0 - - - - - - -
28/06:30am 10.1 W 7 9 1029.3 - 0.0 - - - - - - -
28/06:00am 9.9 W 9 12 1028.8 - 0.0 - - - - - - -
28/05:30am 10.1 W 8 9 1028.5 - 0.0 - - - - - - -
28/05:00am 10.0 NW 7 9 1028.1 - 0.0 - - - - - - -
28/04:30am 10.2 WNW 10 13 1027.9 - 0.0 - - - - - - -
28/04:00am 10.1 WNW 10 12 1027.7 - 0.0 - - - - - - -
28/03:30am 10.1 WNW 9 12 1027.6 - 0.0 - - - - - - -
28/03:00am 10.1 W 9 12 1027.5 - 0.0 - - - - - - -
28/02:30am 10.1 WNW 9 12 1027.6 - 0.0 - - - - - - -
28/02:00am 10.6 W 10 13 1027.5 - 0.0 - - - - - - -
28/01:30am 10.7 W 12 14 1027.4 - 0.0 - - - - - - -
28/01:00am 10.6 WNW 9 11 1027.2 - 0.0 - - - - - - -
28/12:30am 10.6 WNW 8 9 1027.1 - 0.0 - - - - - - -
28/12:00am 10.3 NW 5 7 1027.2 - 0.0 - - - - - - -
 
Date/Time
EST
Temp

°C
Wind Pressure Rain
since 9am
mm
Weather Cloud Vis
km
Sea
Height
m
Swell
Dir
 
Speed
knots
Gust
knots
hPa Trend Height
m
Period
s
Dir
27/11:30pm 10.5 WNW 6 7 1027.1 - 0.0 - - - - - - -
27/11:00pm 10.8 W 9 10 1027.0 - 0.0 - - - - - - -
27/10:30pm 11.5 WSW 12 15 1026.7 - 0.0 - - - - - - -
27/10:00pm 11.3 WSW 10 14 1026.6 - 0.0 - - - - - - -
27/09:30pm 11.4 W 14 16 1026.6 - 0.0 - - - - - - -
27/09:00pm 11.4 W 14 18 1026.2 - 0.0 - - - - - - -
27/08:30pm 11.4 W 11 14 1026.0 - 0.0 - - - - - - -
27/08:00pm 11.6 W 10 12 1025.8 - 0.0 - - - - - - -
27/07:30pm 12.1 W 7 9 1025.6 - 0.0 - - - - - - -
27/07:00pm 12.4 WSW 12 15 1025.5 - 0.0 - - - - - - -
27/06:30pm 12.6 WSW 13 16 1024.9 - 0.0 - - - - - - -
27/06:00pm 12.7 WSW 12 14 1024.3 - 0.0 - - - - - - -
27/05:30pm 12.9 WSW 12 17 1023.9 - 0.0 - - - - - - -
27/05:00pm 13.4 SW 17 21 1023.6 - 0.0 - - - - - - -
27/04:30pm 13.6 SW 15 21 1023.3 - 0.0 - - - - - - -
27/04:00pm 13.8 SW 18 23 1023.0 - 0.0 - - - - - - -
27/03:30pm 14.2 SW 26 31 1022.4 - 0.0 - - - - - - -
27/03:00pm 14.4 WSW 23 33 1022.2 - 0.0 - - - - - - -
27/02:59pm 14.4 WSW 22 33 1022.1 - 0.0 - - - - - - -
27/02:30pm 14.5 SW 18 22 1022.2 - 0.0 - - - - - - -
27/02:00pm 13.6 SW 21 26 1022.1 - 0.0 - - - - - - -
27/01:30pm 13.5 SW 20 25 1022.3 - 0.0 - - - - - - -
27/01:00pm 13.8 WSW 21 26 1022.3 - 0.0 - - - - - - -
27/12:30pm 14.0 SW 20 24 1022.6 - 0.0 - - - - - - -
27/12:00pm 14.1 SW 20 26 1022.8 - 0.0 - - - - - - -
27/11:42am 13.5 SW 15 26 1022.9 - 0.0 - - - - - - -
27/11:30am 13.9 WSW 11 14 1023.2 - 0.0 - - - - - - -
27/11:00am 13.6 W 9 13 1023.2 - 0.0 - - - - - - -
27/10:30am 13.3 W 8 12 1023.1 - 0.0 - - - - - - -
27/10:00am 12.0 W 11 15 1023.1 - 0.0 - - - - - - -
27/09:30am 11.5 WNW 14 17 1022.9 - 0.0 - - - - - - -
27/09:00am 10.9 WNW 13 17 1022.6 - 0.0 - - - - - - -
27/08:30am 10.4 WNW 14 18 1022.4 - 0.0 - - - - - - -
27/08:00am 10.2 NW 15 19 1021.9 - 0.0 - - - - - - -
27/07:30am 9.6 WNW 16 21 1021.6 - 0.0 - - - - - - -
27/07:00am 9.3 WNW 14 18 1021.2 - 0.0 - - - - - - -
27/06:30am 9.3 NW 13 19 1020.8 - 0.0 - - - - - - -
27/06:00am 9.4 WNW 13 17 1020.4 - 0.0 - - - - - - -
27/05:30am 9.5 WNW 14 17 1019.8 - 0.0 - - - - - - -
27/05:00am 9.6 W 14 18 1019.3 - 0.0 - - - - - - -
27/04:30am 9.7 WNW 13 17 1018.7 - 0.0 - - - - - - -
27/04:00am 9.8 W 12 15 1018.4 - 0.0 - - - - - - -
27/03:30am 10.1 W 17 21 1018.0 - 0.0 - - - - - - -
27/03:00am 10.0 WNW 10 15 1017.8 - 0.0 - - - - - - -
27/02:30am 10.0 WNW 12 16 1017.8 - 0.0 - - - - - - -
27/02:00am 10.1 WNW 11 15 1017.7 - 0.0 - - - - - - -
27/01:30am 10.3 WNW 13 17 1017.6 - 0.0 - - - - - - -
27/01:00am 10.3 WNW 11 16 1017.4 - 0.0 - - - - - - -
27/12:30am 10.0 WNW 11 15 1017.2 - 0.0 - - - - - - -
27/12:00am 9.7 WNW 14 18 1017.1 - 0.0 - - - - - - -
 
Date/Time
EST
Temp

°C
Wind Pressure Rain
since 9am
mm
Weather Cloud Vis
km
Sea
Height
m
Swell
Dir
 
Speed
knots
Gust
knots
hPa Trend Height
m
Period
s
Dir
26/11:30pm 10.0 WNW 16 22 1017.4 - 0.0 - - - - - - -
26/11:00pm 10.2 W 23 29 1016.6 - 0.0 - - - - - - -
26/10:30pm 10.1 W 21 27 1016.5 - 0.0 - - - - - - -
26/10:00pm 10.4 W 18 24 1016.4 - 0.0 - - - - - - -
26/09:57pm 10.3 W 18 24 1016.5 - 0.0 - - - - - - -
26/09:30pm 10.1 W 9 14 1016.6 - 0.0 - - - - - - -
26/09:00pm 10.2 W 15 21 1016.3 - 0.0 - - - - - - -
26/08:30pm 11.0 W 22 28 1015.5 - 0.0 - - - - - - -
26/08:00pm 11.2 WNW 23 29 1015.3 - 0.0 - - - - - - -
26/07:30pm 11.3 W 18 23 1015.4 - 0.0 - - - - - - -
26/07:00pm 11.7 W 22 30 1015.0 - 0.0 - - - - - - -
26/06:30pm 12.1 W 22 30 1014.1 - 0.0 - - - - - - -
26/06:00pm 12.5 W 19 25 1013.8 - 0.0 - - - - - - -
26/05:30pm 13.0 WNW 16 21 1012.9 - 0.0 - - - - - - -
26/05:00pm 13.4 W 19 25 1012.3 - 0.0 - - - - - - -
26/04:30pm 14.1 W 27 38 1011.3 - 0.0 - - - - - - -
26/04:08pm 14.9 W 26 39 1010.6 - 0.0 - - - - - - -
26/04:06pm 15.0 W 28 43 1010.7 - 0.0 - - - - - - -
26/04:00pm 15.2 W 29 43 1010.2 - 0.0 - - - - - - -
26/03:53pm 15.3 W 28 39 1009.9 - 0.0 - - - - - - -
26/03:32pm 16.0 W 33 46 1009.1 - 0.0 - - - - - - -
26/03:30pm 16.0 W 33 46 1009.0 - 0.0 - - - - - - -
26/03:28pm 16.1 W 31 40 1009.0 - 0.0 - - - - - - -
26/03:15pm 16.6 W 25 40 1009.1 - 0.0 - - - - - - -
26/03:00pm 17.2 W 25 34 1008.7 - 0.0 - - - - - - -
26/02:31pm 18.0 W 25 36 1008.2 - 0.0 - - - - - - -
26/02:30pm 18.0 W 26 36 1008.1 - 0.0 - - - - - - -
26/02:00pm 18.9 W 24 37 1007.4 - 0.0 - - - - - - -
26/01:32pm 19.0 W 29 41 1006.9 - 0.0 - - - - - - -
26/01:30pm 19.1 W 27 36 1006.8 - 0.0 - - - - - - -
26/01:24pm 19.4 W 22 33 1006.9 - 0.0 - - - - - - -
26/01:06pm 19.2 NW 10 24 1006.9 - 0.0 - - - - - - -
26/01:00pm 19.0 NNW 7 13 1007.1 - 0.0 - - - - - - -
26/12:30pm 17.9 NNE 9 11 1007.4 - 0.0 - - - - - - -
26/12:00pm 16.6 NNE 15 18 1007.8 - 0.0 - - - - - - -
26/11:30am 16.7 NNE 17 21 1008.0 - 0.0 - - - - - - -
26/11:00am 16.2 NNE 17 21 1008.8 - 0.0 - - - - - - -
26/10:30am 15.8 NNE 19 23 1009.1 - 0.0 - - - - - - -
26/10:00am 15.5 NNE 16 21 1009.4 - 0.0 - - - - - - -
26/09:30am 15.2 N 18 23 1009.6 - 0.0 - - - - - - -
26/09:00am 14.4 N 17 23 1010.1 - 0.0 - - - - - - -
26/08:37am 14.3 N 16 26 1010.1 - 0.0 - - - - - - -
26/08:30am 14.6 N 20 26 1010.1 - 0.0 - - - - - - -
26/08:00am 14.2 N 22 27 1010.0 - 0.0 - - - - - - -
26/07:30am 13.9 N 21 26 1010.2 - 0.0 - - - - - - -
26/07:23am 13.8 N 20 26 1010.3 - 0.0 - - - - - - -
26/07:00am 12.5 NNW 12 16 1010.7 - 0.0 - - - - - - -
26/06:30am 12.7 NNW 15 20 1010.9 - 0.0 - - - - - - -
26/06:00am 13.1 N 16 21 1010.8 - 0.0 - - - - - - -
26/05:30am 12.4 NNW 13 18 1011.0 - 0.0 - - - - - - -
26/05:00am 11.9 NW 10 13 1011.4 - 0.0 - - - - - - -
26/04:30am 11.9 NW 6 10 1011.8 - 0.0 - - - - - - -
26/04:00am 12.0 NW 10 13 1012.2 - 0.0 - - - - - - -
26/03:30am 13.0 N 16 20 1012.2 - 0.0 - - - - - - -
26/03:00am 13.0 N 16 21 1012.4 - 0.0 - - - - - - -
26/02:30am 13.3 NNE 16 19 1012.4 - 0.0 - - - - - - -
26/02:00am 12.8 N 12 16 1012.8 - 0.0 - - - - - - -
26/01:30am 12.2 NNW 11 14 1013.2 - 0.0 - - - - - - -
26/01:00am 11.9 NNW 11 14 1013.5 - 0.0 - - - - - - -
26/12:30am 12.2 NNW 15 19 1013.4 - 0.0 - - - - - - -
26/12:00am 12.8 NW 14 19 1013.6 - 0.0 - - - - - - -
 
Date/Time
EST
Temp

°C
Wind Pressure Rain
since 9am
mm
Weather Cloud Vis
km
Sea
Height
m
Swell
Dir
 
Speed
knots
Gust
knots
hPa Trend Height
m
Period
s
Dir
25/11:30pm 12.5 NW 12 15 1014.2 - 0.0 - - - - - - -
25/11:00pm 12.1 NNW 10 13 1014.5 - 0.0 - - - - - - -
25/10:30pm 12.1 NW 9 13 1014.9 - 0.0 - - - - - - -
25/10:00pm 12.9 NW 11 16 1014.6 - 0.0 - - - - - - -
25/09:30pm 12.7 NW 10 14 1014.5 - 0.0 - - - - - - -
25/09:00pm 13.0 NNW 10 13 1014.7 - 0.0 - - - - - - -
25/08:30pm 13.4 NW 8 11 1014.2 - 0.0 - - - - - - -
25/08:00pm 13.4 NW 9 11 1014.4 - 0.0 - - - - - - -
25/07:30pm 13.6 NW 9 12 1014.2 - 0.0 - - - - - - -
25/07:00pm 13.7 W 9 11 1013.7 - 0.0 - - - - - - -
25/06:30pm 14.3 W 12 14 1013.2 - 0.0 - - - - - - -

Other Formats:

Comma delimited format used in spreadsheet applications
http://www.bom.gov.au/fwo/IDN60701/IDN60701.94939.axf

JavaScript Object Notation format (JSON) in row-major order
http://www.bom.gov.au/fwo/IDN60701/IDN60701.94939.json